^^
Your Local Weather - Clay, NY Station Historical Data
Daily Summary for June 9, 2017 Units:  English    Metric   Both
« Previous Day
Next Day »
Daily Weekly Monthly Yearly Custom
  High: Low: Average:
Temperature: 77.0 °F 50.5 °F 64.8 °F
Dew Point: 55.4 °F 47.5 °F 51.3 °F
Humidity: 92% 38% 65%
Wind Speed: 4.0mph 0.0mph 1mph
Wind Gust: 10.0mph - -
Wind- - WNW
Pressure: 29.80 in 29.70 in -
Precipitation: 0.00 in    
Historical Graphs
 
 
Tabular Data for June 9, 2017
Time Temperature Dew Point Pressure Wind Wind Speed Wind Gust Humidity Rainfall Rate (Hourly) solar
00:04 54.7 °F 50.0 °F 29.76 in Calm     84% 0.00 in 0 W/m2
00:10 54.7 °F 50.0 °F 29.76 in Calm     84% 0.00 in 0 W/m2
00:16 54.7 °F 50.0 °F 29.76 in Calm     84% 0.00 in 0 W/m2
00:22 54.7 °F 50.0 °F 29.75 in Calm     84% 0.00 in 0 W/m2
00:28 54.7 °F 50.3 °F 29.75 in Calm     85% 0.00 in 0 W/m2
00:34 54.6 °F 50.2 °F 29.75 in Calm     85% 0.00 in 0 W/m2
00:40 54.4 °F 50.0 °F 29.75 in Calm     85% 0.00 in 0 W/m2
00:46 54.3 °F 49.9 °F 29.75 in Calm     85% 0.00 in 0 W/m2
00:52 54.3 °F 50.2 °F 29.74 in Calm     86% 0.00 in 0 W/m2
00:58 54.2 °F 50.1 °F 29.74 in Calm     86% 0.00 in 0 W/m2
01:04 54.1 °F 50.0 °F 29.74 in Calm     86% 0.00 in 0 W/m2
01:10 53.8 °F 50.0 °F 29.73 in Calm     87% 0.00 in 0 W/m2
01:16 53.5 °F 49.4 °F 29.74 in Calm     86% 0.00 in 0 W/m2
01:22 53.3 °F 49.5 °F 29.74 in Calm     87% 0.00 in 0 W/m2
01:28 53.1 °F 49.3 °F 29.73 in Calm     87% 0.00 in 0 W/m2
01:34 53.1 °F 49.3 °F 29.73 in Calm     87% 0.00 in 0 W/m2
01:40 53.3 °F 49.5 °F 29.73 in Calm     87% 0.00 in 0 W/m2
01:46 53.4 °F 49.6 °F 29.73 in Calm     87% 0.00 in 0 W/m2
01:52 53.3 °F 49.5 °F 29.73 in Calm     87% 0.00 in 0 W/m2
01:58 53.2 °F 49.1 °F 29.73 in Calm     86% 0.00 in 0 W/m2
02:04 53.1 °F 49.0 °F 29.73 in Calm     86% 0.00 in 0 W/m2
02:10 53.0 °F 48.9 °F 29.73 in Calm     86% 0.00 in 0 W/m2
02:16 53.0 °F 48.6 °F 29.73 in Calm     85% 0.00 in 0 W/m2
02:22 52.9 °F 48.5 °F 29.73 in Calm     85% 0.00 in 0 W/m2
02:28 52.8 °F 48.4 °F 29.72 in Calm     85% 0.00 in 0 W/m2
02:34 52.9 °F 48.8 °F 29.72 in Calm     86% 0.00 in 0 W/m2
02:40 52.7 °F 48.6 °F 29.72 in Calm     86% 0.00 in 0 W/m2
02:46 52.6 °F 48.8 °F 29.72 in Calm     87% 0.00 in 0 W/m2
02:52 52.3 °F 48.5 °F 29.72 in Calm     87% 0.00 in 0 W/m2
02:58 52.1 °F 48.3 °F 29.72 in Calm     87% 0.00 in 0 W/m2
03:04 52.0 °F 48.3 °F 29.72 in Calm     87% 0.00 in 0 W/m2
03:10 51.8 °F 48.1 °F 29.72 in Calm     87% 0.00 in 0 W/m2
03:16 51.6 °F 48.2 °F 29.72 in Calm     88% 0.00 in 0 W/m2
03:22 51.4 °F 48.0 °F 29.72 in Calm     88% 0.00 in 0 W/m2
03:28 51.2 °F 47.8 °F 29.72 in Calm     88% 0.00 in 0 W/m2
03:34 51.1 °F 48.0 °F 29.72 in Calm     89% 0.00 in 0 W/m2
03:40 51.0 °F 47.9 °F 29.72 in Calm     89% 0.00 in 0 W/m2
03:46 50.8 °F 47.7 °F 29.72 in Calm     89% 0.00 in 0 W/m2
03:52 50.6 °F 47.5 °F 29.72 in Calm     89% 0.00 in 0 W/m2
03:58 50.5 °F 47.7 °F 29.72 in Calm     90% 0.00 in 0 W/m2
04:04 50.5 °F 47.7 °F 29.72 in Calm     90% 0.00 in 0 W/m2
04:10 50.7 °F 47.9 °F 29.72 in Calm     90% 0.00 in 0 W/m2
04:16 50.6 °F 48.1 °F 29.72 in Calm     91% 0.00 in 0 W/m2
04:22 51.3 °F 48.8 °F 29.72 in North 1.0 mph 3.0 mph 91% 0.00 in 0 W/m2
04:28 51.9 °F 49.4 °F 29.73 in NE 2.0 mph 3.0 mph 91% 0.00 in 0 W/m2
04:34 52.1 °F 49.6 °F 29.73 in NE 1.0 mph 1.0 mph 91% 0.00 in 0 W/m2
04:40 52.4 °F 49.8 °F 29.72 in Calm     91% 0.00 in 0 W/m2
04:46 52.6 °F 50.0 °F 29.72 in Calm     91% 0.00 in 0 W/m2
04:52 52.8 °F 49.9 °F 29.72 in Calm     90% 0.00 in 0 W/m2
04:58 53.0 °F 50.1 °F 29.72 in Calm     90% 0.00 in 0 W/m2
05:04 53.2 °F 50.3 °F 29.72 in Calm     90% 0.00 in 0 W/m2
05:10 53.4 °F 50.5 °F 29.72 in Calm     90% 0.00 in 0 W/m2
05:16 53.6 °F 50.7 °F 29.72 in Calm     90% 0.00 in 0 W/m2
05:22 53.7 °F 50.5 °F 29.72 in Calm     89% 0.00 in 0 W/m2
05:28 53.8 °F 50.6 °F 29.72 in Calm     89% 0.00 in 0 W/m2
05:34 53.8 °F 50.6 °F 29.72 in Calm   1.0 mph 89% 0.00 in 0 W/m2
05:40 53.8 °F 50.6 °F 29.72 in Calm     89% 0.00 in 0 W/m2
05:46 53.8 °F 50.6 °F 29.72 in Calm     89% 0.00 in 0 W/m2
05:52 54.0 °F 51.1 °F 29.73 in Calm     90% 0.00 in 5 W/m2
05:58 54.0 °F 51.1 °F 29.73 in Calm   1.0 mph 90% 0.00 in 7 W/m2
06:04 53.9 °F 51.0 °F 29.73 in Calm   2.0 mph 90% 0.00 in 12 W/m2
06:10 53.9 °F 51.0 °F 29.73 in Calm     90% 0.00 in 21 W/m2
06:16 54.0 °F 51.4 °F 29.73 in Calm   1.0 mph 91% 0.00 in 28 W/m2
06:22 54.0 °F 51.4 °F 29.73 in Calm     91% 0.00 in 35 W/m2
06:28 54.1 °F 51.5 °F 29.73 in Calm     91% 0.00 in 53 W/m2
06:34 54.5 °F 51.9 °F 29.73 in Calm     91% 0.00 in 148 W/m2
06:40 55.1 °F 52.5 °F 29.73 in Calm     91% 0.00 in 51 W/m2
06:46 55.6 °F 53.3 °F 29.73 in Calm     92% 0.00 in 146 W/m2
06:52 56.0 °F 53.7 °F 29.73 in Calm     92% 0.00 in 58 W/m2
06:58 56.3 °F 53.7 °F 29.73 in Calm     91% 0.00 in 188 W/m2
07:04 56.7 °F 54.1 °F 29.73 in Calm     91% 0.00 in 232 W/m2
07:10 57.1 °F 53.9 °F 29.73 in Calm     89% 0.00 in 253 W/m2
07:16 57.8 °F 53.3 °F 29.73 in Calm     85% 0.00 in 265 W/m2
07:22 58.7 °F 53.5 °F 29.73 in Calm     83% 0.00 in 281 W/m2
07:28 59.6 °F 54.1 °F 29.73 in Calm     82% 0.00 in 299 W/m2
07:34 60.3 °F 54.1 °F 29.73 in Calm     80% 0.00 in 311 W/m2
07:40 61.0 °F 54.4 °F 29.73 in Calm     79% 0.00 in 327 W/m2
07:46 62.0 °F 55.4 °F 29.73 in Calm     79% 0.00 in 343 W/m2
07:52 62.3 °F 55.0 °F 29.73 in Calm     77% 0.00 in 366 W/m2
07:58 62.5 °F 54.1 °F 29.73 in Calm     74% 0.00 in 392 W/m2
08:04 63.2 °F 55.1 °F 29.73 in Calm     75% 0.00 in 429 W/m2
08:10 63.4 °F 54.6 °F 29.73 in Calm     73% 0.00 in 311 W/m2
08:16 63.8 °F 53.8 °F 29.73 in Calm     70% 0.00 in 241 W/m2
08:22 64.1 °F 52.5 °F 29.73 in Calm     66% 0.00 in 188 W/m2
08:28 64.5 °F 52.9 °F 29.73 in Calm   2.0 mph 66% 0.00 in 466 W/m2
08:34 64.9 °F 52.8 °F 29.73 in Calm     65% 0.00 in 478 W/m2
08:46 66.6 °F 52.7 °F 29.73 in Calm   2.0 mph 61% 0.00 in 510 W/m2
08:52 66.6 °F 51.8 °F 29.73 in Calm     59% 0.00 in 527 W/m2
08:58 66.7 °F 52.8 °F 29.73 in Calm   5.0 mph 61% 0.00 in 548 W/m2
09:04 66.9 °F 52.6 °F 29.73 in WSW 1.0 mph 2.0 mph 60% 0.00 in 564 W/m2
09:10 67.4 °F 52.6 °F 29.73 in SW 1.0 mph 1.0 mph 59% 0.00 in 580 W/m2
09:16 67.8 °F 51.0 °F 29.73 in WSW 1.0 mph 1.0 mph 55% 0.00 in 598 W/m2
09:22 68.1 °F 51.3 °F 29.73 in West 1.0 mph 5.0 mph 55% 0.00 in 613 W/m2
09:28 68.5 °F 52.2 °F 29.73 in WSW 1.0 mph 5.0 mph 56% 0.00 in 629 W/m2
09:34 68.7 °F 50.9 °F 29.73 in NW 1.0 mph 2.0 mph 53% 0.00 in 643 W/m2
09:40 68.8 °F 51.0 °F 29.73 in SW 1.0 mph 1.0 mph 53% 0.00 in 664 W/m2
09:46 69.2 °F 52.3 °F 29.73 in SW 1.0 mph 1.0 mph 55% 0.00 in 742 W/m2
09:52 69.7 °F 52.8 °F 29.73 in SW 1.0 mph 5.0 mph 55% 0.00 in 724 W/m2
09:58 69.6 °F 52.2 °F 29.73 in SW 1.0 mph 5.0 mph 54% 0.00 in 821 W/m2
10:04 69.0 °F 51.2 °F 29.73 in West 1.0 mph 2.0 mph 53% 0.00 in 334 W/m2
10:10 69.0 °F 52.2 °F 29.73 in Calm   1.0 mph 55% 0.00 in 747 W/m2
10:16 69.6 °F 51.7 °F 29.73 in WSW 1.0 mph 2.0 mph 53% 0.00 in 763 W/m2
10:22 69.5 °F 51.6 °F 29.73 in NNW 2.0 mph 4.0 mph 53% 0.00 in 782 W/m2
10:28 69.7 °F 50.8 °F 29.73 in WSW 2.0 mph 4.0 mph 51% 0.00 in 793 W/m2
10:34 69.4 °F 53.0 °F 29.73 in SW 2.0 mph 4.0 mph 56% 0.00 in 795 W/m2
10:40 70.0 °F 52.6 °F 29.73 in West 1.0 mph 1.0 mph 54% 0.00 in 809 W/m2
10:46 70.5 °F 52.5 °F 29.73 in WSW 1.0 mph 5.0 mph 53% 0.00 in 821 W/m2
10:52 70.7 °F 54.7 °F 29.73 in WNW 1.0 mph 4.0 mph 57% 0.00 in 831 W/m2
10:58 71.0 °F 53.5 °F 29.73 in WSW 1.0 mph 4.0 mph 54% 0.00 in 844 W/m2
11:04 71.2 °F 55.2 °F 29.73 in WNW 2.0 mph 4.0 mph 57% 0.00 in 853 W/m2
11:12 71.5 °F 53.5 °F 29.73 in NW 2.0 mph 2.0 mph 53% 0.00 in 863 W/m2
11:18 71.8 °F 54.8 °F 29.73 in NW 1.0 mph 2.0 mph 55% 0.00 in 874 W/m2
11:24 71.7 °F 52.6 °F 29.73 in WNW 2.0 mph 4.0 mph 51% 0.00 in 886 W/m2
11:30 72.3 °F 51.5 °F 29.73 in NNW 2.0 mph 2.0 mph 48% 0.00 in 889 W/m2
11:36 72.3 °F 54.2 °F 29.73 in NW 2.0 mph 2.0 mph 53% 0.00 in 902 W/m2
11:42 72.4 °F 50.4 °F 29.73 in West 2.0 mph 3.0 mph 46% 0.00 in 907 W/m2
11:48 72.3 °F 50.4 °F 29.73 in NNW 4.0 mph 5.0 mph 46% 0.00 in 916 W/m2
11:54 72.7 °F 54.6 °F 29.73 in WNW 3.0 mph 4.0 mph 53% 0.00 in 916 W/m2
12:00 73.0 °F 55.4 °F 29.73 in SSW 2.0 mph 2.0 mph 54% 0.00 in 919 W/m2
12:06 73.7 °F 54.4 °F 29.73 in NW 2.0 mph 4.0 mph 51% 0.00 in 923 W/m2
12:12 73.3 °F 51.3 °F 29.73 in NW 3.0 mph 10.0 mph 46% 0.00 in 944 W/m2
12:18 73.7 °F 51.0 °F 29.72 in NW 3.0 mph 10.0 mph 45% 0.00 in 946 W/m2
12:24 74.0 °F 55.3 °F 29.73 in NNW 3.0 mph 6.0 mph 52% 0.00 in 944 W/m2
12:30 74.3 °F 50.4 °F 29.73 in NW 3.0 mph 7.0 mph 43% 0.00 in 953 W/m2
12:36 74.3 °F 48.4 °F 29.73 in NNW 3.0 mph 7.0 mph 40% 0.00 in 958 W/m2
12:42 74.1 °F 50.8 °F 29.72 in North 2.0 mph 8.0 mph 44% 0.00 in 965 W/m2
12:48 74.6 °F 48.7 °F 29.72 in WNW 3.0 mph 8.0 mph 40% 0.00 in 981 W/m2
12:54 74.2 °F 49.6 °F 29.72 in NW 3.0 mph 4.0 mph 42% 0.00 in 977 W/m2
13:00 74.8 °F 52.6 °F 29.72 in NNW 3.0 mph 3.0 mph 46% 0.00 in 967 W/m2
13:06 74.8 °F 50.8 °F 29.72 in South 2.0 mph 4.0 mph 43% 0.00 in 993 W/m2
13:12 74.8 °F 50.8 °F 29.72 in NNW 2.0 mph 6.0 mph 43% 0.00 in 984 W/m2
13:18 74.0 °F 49.4 °F 29.72 in NNW 3.0 mph 6.0 mph 42% 0.00 in 981 W/m2
13:24 74.5 °F 54.6 °F 29.72 in North 3.0 mph 4.0 mph 50% 0.00 in 981 W/m2
13:30 74.7 °F 51.3 °F 29.72 in NW 3.0 mph 3.0 mph 44% 0.00 in 986 W/m2
13:36 74.8 °F 48.9 °F 29.71 in NNW 4.0 mph 6.0 mph 40% 0.00 in 960 W/m2
13:42 75.4 °F 54.3 °F 29.71 in NW 3.0 mph 4.0 mph 48% 0.00 in 958 W/m2
13:48 76.1 °F 55.0 °F 29.71 in SSW 2.0 mph 6.0 mph 48% 0.00 in 960 W/m2
13:54 75.2 °F 51.2 °F 29.71 in WSW 3.0 mph 3.0 mph 43% 0.00 in 954 W/m2
14:00 75.9 °F 50.5 °F 29.71 in WSW 3.0 mph 3.0 mph 41% 0.00 in 954 W/m2
14:06 75.9 °F 49.8 °F 29.71 in NW 2.0 mph 3.0 mph 40% 0.00 in 937 W/m2
14:12 75.7 °F 50.3 °F 29.71 in WNW 3.0 mph 5.0 mph 41% 0.00 in 944 W/m2
14:18 75.5 °F 53.3 °F 29.71 in WNW 2.0 mph 5.0 mph 46% 0.00 in 930 W/m2
14:24 75.9 °F 50.5 °F 29.71 in SSW 2.0 mph 4.0 mph 41% 0.00 in 946 W/m2
14:30 76.1 °F 52.6 °F 29.70 in NW 3.0 mph 3.0 mph 44% 0.00 in 998 W/m2
14:36 75.8 °F 48.4 °F 29.70 in NNW 3.0 mph 5.0 mph 38% 0.00 in 949 W/m2
14:42 76.0 °F 49.2 °F 29.70 in North 3.0 mph 5.0 mph 39% 0.00 in 1000 W/m2
14:48 76.0 °F 48.6 °F 29.70 in WNW 3.0 mph 5.0 mph 38% 0.00 in 928 W/m2
14:54 76.2 °F 51.4 °F 29.70 in North 4.0 mph 10.0 mph 42% 0.00 in 884 W/m2
15:00 76.6 °F 51.8 °F 29.70 in SSW 3.0 mph 3.0 mph 42% 0.00 in 889 W/m2
15:06 77.0 °F 52.1 °F 29.70 in WSW 2.0 mph 6.0 mph 42% 0.00 in 851 W/m2
15:12 75.8 °F 51.1 °F 29.70 in NW 2.0 mph 5.0 mph 42% 0.00 in 752 W/m2
15:18 75.7 °F 54.0 °F 29.70 in WNW 3.0 mph 5.0 mph 47% 0.00 in 835 W/m2
15:24 76.1 °F 52.0 °F 29.70 in NW 3.0 mph 6.0 mph 43% 0.00 in 817 W/m2
15:30 75.7 °F 51.0 °F 29.71 in WSW 3.0 mph 3.0 mph 42% 0.00 in 809 W/m2
15:36 75.7 °F 53.4 °F 29.71 in NW 3.0 mph 4.0 mph 46% 0.00 in 780 W/m2
15:42 75.4 °F 50.1 °F 29.71 in NW 3.0 mph 4.0 mph 41% 0.00 in 772 W/m2
15:48 75.4 °F 53.8 °F 29.71 in NNW 3.0 mph 5.0 mph 47% 0.00 in 765 W/m2
15:54 75.7 °F 53.4 °F 29.71 in NNW 3.0 mph 5.0 mph 46% 0.00 in 747 W/m2
16:00 75.6 °F 53.4 °F 29.71 in NW 3.0 mph 3.0 mph 46% 0.00 in 740 W/m2
16:06 75.4 °F 52.0 °F 29.70 in NW 3.0 mph 3.0 mph 44% 0.00 in 729 W/m2
16:12 75.5 °F 52.7 °F 29.70 in North 3.0 mph 3.0 mph 45% 0.00 in 712 W/m2
16:18 75.7 °F 51.6 °F 29.70 in West 2.0 mph 4.0 mph 43% 0.00 in 691 W/m2
16:24 75.2 °F 51.2 °F 29.70 in NW 3.0 mph 6.0 mph 43% 0.00 in 192 W/m2
16:30 75.1 °F 50.4 °F 29.70 in West 2.0 mph 2.0 mph 42% 0.00 in 120 W/m2
16:36 75.2 °F 52.4 °F 29.70 in NW 2.0 mph 4.0 mph 45% 0.00 in 132 W/m2
16:42 75.2 °F 53.0 °F 29.70 in NW 3.0 mph 3.0 mph 46% 0.00 in 76 W/m2
16:48 74.8 °F 52.6 °F 29.70 in NNW 3.0 mph 5.0 mph 46% 0.00 in 144 W/m2
16:54 74.6 °F 51.9 °F 29.70 in WNW 3.0 mph 4.0 mph 45% 0.00 in 301 W/m2
17:00 74.6 °F 51.9 °F 29.70 in NNW 2.0 mph 4.0 mph 45% 0.00 in 105 W/m2
17:06 74.3 °F 52.2 °F 29.70 in NW 3.0 mph 7.0 mph 46% 0.00 in 72 W/m2
17:12 74.1 °F 52.6 °F 29.70 in NNW 3.0 mph 4.0 mph 47% 0.00 in 67 W/m2
17:18 74.1 °F 51.4 °F 29.70 in NW 2.0 mph 4.0 mph 45% 0.00 in 69 W/m2
17:24 74.3 °F 52.8 °F 29.70 in NNW 2.0 mph 4.0 mph 47% 0.00 in 70 W/m2
17:30 74.4 °F 51.7 °F 29.70 in WNW 2.0 mph 5.0 mph 45% 0.00 in 76 W/m2
17:36 74.2 °F 52.7 °F 29.70 in NW 2.0 mph 5.0 mph 47% 0.00 in 65 W/m2
17:42 73.9 °F 53.0 °F 29.70 in WNW 3.0 mph 6.0 mph 48% 0.00 in 74 W/m2
17:48 73.8 °F 52.3 °F 29.70 in WNW 3.0 mph 6.0 mph 47% 0.00 in 62 W/m2
17:54 73.7 °F 53.3 °F 29.70 in NNW 3.0 mph 3.0 mph 49% 0.00 in 63 W/m2
18:00 73.7 °F 53.3 °F 29.70 in NW 2.0 mph 2.0 mph 49% 0.00 in 63 W/m2
18:06 73.8 °F 53.4 °F 29.70 in North 2.0 mph 5.0 mph 49% 0.00 in 65 W/m2
18:12 73.4 °F 51.9 °F 29.71 in NW 3.0 mph 3.0 mph 47% 0.00 in 67 W/m2
18:18 73.0 °F 50.4 °F 29.71 in NW 3.0 mph 3.0 mph 45% 0.00 in 63 W/m2
18:24 73.2 °F 51.2 °F 29.71 in WNW 2.0 mph 2.0 mph 46% 0.00 in 70 W/m2
18:30 73.4 °F 49.5 °F 29.71 in NW 1.0 mph 1.0 mph 43% 0.00 in 76 W/m2
18:36 73.4 °F 48.3 °F 29.71 in NW 2.0 mph 4.0 mph 41% 0.00 in 67 W/m2
18:42 73.3 °F 47.5 °F 29.71 in NNW 2.0 mph 3.0 mph 40% 0.00 in 51 W/m2
18:48 73.1 °F 48.6 °F 29.72 in WNW 1.0 mph 4.0 mph 42% 0.00 in 49 W/m2
18:54 73.1 °F 49.9 °F 29.72 in NW 2.0 mph 2.0 mph 44% 0.00 in 46 W/m2
19:00 72.9 °F 47.8 °F 29.72 in NW 2.0 mph 2.0 mph 41% 0.00 in 47 W/m2
19:06 72.8 °F 49.0 °F 29.72 in NNW 2.0 mph 2.0 mph 43% 0.00 in 46 W/m2
19:12 72.4 °F 49.3 °F 29.73 in NNW 2.0 mph 3.0 mph 44% 0.00 in 37 W/m2
19:20 72.1 °F 50.2 °F 29.73 in NNW 1.0 mph 1.0 mph 46% 0.00 in 47 W/m2
19:26 71.9 °F 50.0 °F 29.73 in WSW 1.0 mph 1.0 mph 46% 0.00 in 44 W/m2
19:32 71.9 °F 50.0 °F 29.73 in West 1.0 mph 2.0 mph 46% 0.00 in 44 W/m2
19:38 71.6 °F 49.7 °F 29.73 in West 1.0 mph 2.0 mph 46% 0.00 in 35 W/m2
19:44 71.5 °F 50.8 °F 29.74 in Calm     48% 0.00 in 39 W/m2
19:50 71.2 °F 51.1 °F 29.74 in Calm     49% 0.00 in 33 W/m2
19:56 70.9 °F 50.2 °F 29.74 in Calm   2.0 mph 48% 0.00 in 28 W/m2
20:02 70.6 °F 50.0 °F 29.74 in Calm   2.0 mph 48% 0.00 in 23 W/m2
20:08 70.3 °F 49.7 °F 29.74 in Calm   2.0 mph 48% 0.00 in 19 W/m2
20:14 69.8 °F 50.3 °F 29.75 in Calm     50% 0.00 in 16 W/m2
20:20 69.4 °F 50.5 °F 29.75 in Calm     51% 0.00 in 14 W/m2
20:26 69.1 °F 50.7 °F 29.75 in Calm     52% 0.00 in 9 W/m2
20:32 68.7 °F 50.4 °F 29.75 in Calm     52% 0.00 in 7 W/m2
20:38 68.3 °F 50.5 °F 29.75 in Calm     53% 0.00 in 0 W/m2
20:44 67.6 °F 51.8 °F 29.76 in Calm     57% 0.00 in 0 W/m2
20:50 66.9 °F 52.1 °F 29.76 in Calm     59% 0.00 in 0 W/m2
20:56 66.0 °F 52.2 °F 29.76 in Calm     61% 0.00 in 0 W/m2
21:02 65.5 °F 51.7 °F 29.76 in Calm     61% 0.00 in 0 W/m2
21:08 65.0 °F 51.7 °F 29.76 in Calm     62% 0.00 in 0 W/m2
21:20 64.3 °F 51.9 °F 29.76 in Calm     64% 0.00 in 0 W/m2
21:26 64.0 °F 50.7 °F 29.77 in Calm     62% 0.00 in 0 W/m2
21:32 63.7 °F 51.7 °F 29.77 in Calm     65% 0.00 in 0 W/m2
21:38 63.4 °F 51.8 °F 29.78 in Calm     66% 0.00 in 0 W/m2
21:44 63.1 °F 52.4 °F 29.78 in Calm     68% 0.00 in 0 W/m2
21:50 62.7 °F 52.4 °F 29.78 in Calm     69% 0.00 in 0 W/m2
21:56 62.1 °F 51.8 °F 29.78 in Calm     69% 0.00 in 0 W/m2
22:02 61.9 °F 51.6 °F 29.78 in Calm     69% 0.00 in 0 W/m2
22:08 61.7 °F 51.8 °F 29.79 in Calm     70% 0.00 in 0 W/m2
22:14 61.5 °F 52.0 °F 29.79 in Calm     71% 0.00 in 0 W/m2
22:20 61.3 °F 51.8 °F 29.79 in Calm     71% 0.00 in 0 W/m2
22:26 61.1 °F 51.6 °F 29.79 in Calm     71% 0.00 in 0 W/m2
22:32 61.1 °F 52.4 °F 29.79 in Calm     73% 0.00 in 0 W/m2
22:38 60.9 °F 52.6 °F 29.79 in Calm     74% 0.00 in 0 W/m2
22:44 60.7 °F 52.7 °F 29.79 in Calm     75% 0.00 in 0 W/m2
22:50 60.4 °F 52.4 °F 29.79 in Calm     75% 0.00 in 0 W/m2
22:56 60.0 °F 52.4 °F 29.79 in Calm     76% 0.00 in 0 W/m2
23:02 59.7 °F 52.1 °F 29.79 in Calm     76% 0.00 in 0 W/m2
23:08 59.7 °F 52.5 °F 29.79 in Calm     77% 0.00 in 0 W/m2
23:14 59.5 °F 52.3 °F 29.79 in Calm     77% 0.00 in 0 W/m2
23:20 59.5 °F 52.6 °F 29.79 in Calm     78% 0.00 in 0 W/m2
23:26 59.6 °F 53.8 °F 29.79 in Calm     81% 0.00 in 0 W/m2
23:32 59.3 °F 52.8 °F 29.79 in Calm     79% 0.00 in 0 W/m2
23:38 59.2 °F 52.7 °F 29.79 in Calm     79% 0.00 in 0 W/m2
23:44 59.2 °F 52.7 °F 29.79 in Calm     79% 0.00 in 0 W/m2
23:50 59.3 °F 53.1 °F 29.79 in Calm     80% 0.00 in 0 W/m2
23:56 59.5 °F 53.0 °F 29.80 in Calm     79% 0.00 in 0 W/m2
Country Meadow, Clay, NY, USA
Compliments of Weather Underground - 2 mb